createdAt,value
2023-01-23T00:00:56.796Z,18.55
2023-01-23T00:03:23.750Z,17.95
2023-01-23T00:06:01.594Z,18.75
2023-01-23T00:08:28.686Z,19.20
2023-01-23T00:10:55.612Z,18.55
2023-01-23T00:13:22.217Z,18.70
2023-01-23T00:15:49.050Z,18.10
2023-01-23T00:18:15.985Z,18.73
2023-01-23T00:20:42.917Z,19.05
2023-01-23T00:23:10.956Z,17.90
2023-01-23T00:25:37.637Z,18.52
2023-01-23T00:28:04.640Z,19.67
2023-01-23T00:30:32.385Z,17.27
2023-01-23T00:32:59.246Z,17.73
2023-01-23T00:35:26.379Z,17.27
2023-01-23T00:37:54.637Z,16.88
2023-01-23T00:40:21.430Z,18.95
2023-01-23T00:42:48.174Z,17.58
2023-01-23T00:45:14.783Z,19.20
2023-01-23T00:47:41.434Z,17.42
2023-01-23T00:50:08.630Z,17.77
2023-01-23T00:52:36.322Z,16.80
2023-01-23T00:55:03.882Z,18.90
2023-01-23T00:57:30.465Z,17.80
2023-01-23T00:59:57.025Z,17.75
2023-01-23T01:02:23.677Z,18.45
2023-01-23T01:04:50.247Z,18.25
2023-01-23T01:07:16.949Z,18.73
2023-01-23T01:09:43.568Z,18.55
2023-01-23T01:12:10.216Z,17.65
2023-01-23T01:14:37.672Z,18.95
2023-01-23T01:17:04.262Z,17.20
2023-01-23T01:19:30.808Z,18.65
2023-01-23T01:21:57.504Z,19.70
2023-01-23T01:24:24.081Z,18.73
2023-01-23T01:26:50.705Z,20.02
2023-01-23T01:29:17.286Z,20.23
2023-01-23T01:31:43.986Z,19.45
2023-01-23T01:34:10.617Z,19.33
2023-01-23T01:36:37.148Z,18.40
2023-01-23T01:39:03.974Z,20.75
2023-01-23T01:41:31.004Z,20.20
2023-01-23T01:43:59.995Z,20.58
2023-01-23T01:46:29.283Z,19.85
2023-01-23T01:49:16.825Z,21.45
2023-01-23T01:52:00.872Z,19.48
2023-01-23T01:54:42.481Z,20.75
2023-01-23T01:57:16.150Z,20.27
2023-01-23T01:59:58.412Z,20.02
2023-01-23T02:02:24.988Z,19.58
2023-01-23T02:04:57.811Z,20.33
2023-01-23T02:07:32.434Z,19.88
2023-01-23T02:10:00.622Z,19.92
2023-01-23T02:12:28.131Z,19.70
2023-01-23T02:14:54.965Z,19.60
2023-01-23T02:17:21.891Z,19.73
2023-01-23T02:19:54.773Z,21.10
2023-01-23T02:22:46.671Z,19.80
2023-01-23T02:25:31.544Z,21.02
2023-01-23T02:27:58.288Z,18.58
2023-01-23T02:30:25.232Z,20.05
2023-01-23T02:32:54.421Z,21.65
2023-01-23T02:35:31.273Z,21.98
2023-01-23T02:38:05.832Z,21.75
2023-01-23T02:40:38.164Z,21.48
2023-01-23T02:43:13.214Z,21.02
2023-01-23T02:45:45.631Z,22.13
2023-01-23T02:48:14.568Z,21.95
2023-01-23T02:50:43.364Z,21.17
2023-01-23T02:53:09.989Z,21.77
2023-01-23T02:55:39.325Z,21.38
2023-01-23T02:58:24.584Z,22.17
2023-01-23T03:00:51.231Z,22.23
2023-01-23T03:03:18.755Z,22.10
2023-01-23T03:05:46.948Z,22.10
2023-01-23T03:08:13.588Z,22.00
2023-01-23T03:10:40.076Z,20.63
2023-01-23T03:13:08.502Z,22.15
2023-01-23T03:15:35.423Z,22.60
2023-01-23T03:18:02.587Z,21.85
2023-01-23T03:20:30.423Z,22.00
2023-01-23T03:22:56.943Z,23.48
2023-01-23T03:25:23.524Z,21.10
2023-01-23T03:27:50.141Z,22.38
2023-01-23T03:30:17.287Z,20.95
2023-01-23T03:32:45.424Z,20.48
2023-01-23T03:35:16.474Z,20.90
2023-01-23T03:37:43.942Z,21.65
2023-01-23T03:40:41.265Z,20.17
2023-01-23T03:43:10.753Z,22.50
2023-01-23T03:45:42.922Z,21.80
2023-01-23T03:48:09.633Z,22.48
2023-01-23T03:50:36.315Z,21.42
2023-01-23T03:53:03.046Z,22.73
2023-01-23T03:55:29.658Z,21.15
2023-01-23T03:57:56.255Z,21.80
2023-01-23T04:00:31.830Z,23.00
2023-01-23T04:03:05.677Z,23.23
2023-01-23T04:05:32.236Z,22.30
2023-01-23T04:08:00.427Z,24.00
2023-01-23T04:10:27.808Z,22.30
2023-01-23T04:12:59.731Z,22.50
2023-01-23T04:15:26.485Z,23.83
2023-01-23T04:17:55.811Z,24.63
2023-01-23T04:20:24.963Z,24.30
2023-01-23T04:22:52.420Z,24.25
2023-01-23T04:25:19.158Z,24.52
2023-01-23T04:27:46.715Z,25.45
2023-01-23T04:30:13.622Z,23.90
2023-01-23T04:32:40.879Z,25.08
2023-01-23T04:35:08.473Z,22.90
2023-01-23T04:37:37.688Z,22.52
2023-01-23T04:40:04.917Z,22.85
2023-01-23T04:42:41.280Z,22.85
2023-01-23T04:45:11.885Z,22.17
2023-01-23T04:47:57.204Z,23.02
2023-01-23T04:50:23.782Z,22.85
2023-01-23T04:52:51.533Z,22.02
2023-01-23T04:55:18.638Z,23.02
2023-01-23T04:57:46.548Z,23.73
2023-01-23T05:00:21.727Z,24.02
2023-01-23T05:02:49.714Z,21.98
2023-01-23T05:05:21.116Z,22.92
2023-01-23T05:07:50.901Z,23.45
2023-01-23T05:10:18.746Z,23.63
2023-01-23T05:12:46.536Z,22.27
2023-01-23T05:15:13.514Z,22.40
2023-01-23T05:17:41.721Z,24.55
2023-01-23T05:20:10.476Z,23.65
2023-01-23T05:22:38.826Z,23.92
2023-01-23T05:25:05.914Z,23.42
2023-01-23T05:27:32.848Z,23.42
2023-01-23T05:29:59.782Z,21.85
2023-01-23T05:32:30.244Z,22.20
2023-01-23T05:35:09.190Z,22.98
2023-01-23T05:37:38.278Z,22.23
2023-01-23T05:40:08.872Z,22.17
2023-01-23T05:42:55.647Z,21.67
2023-01-23T05:45:41.087Z,22.75
2023-01-23T05:48:14.433Z,21.38
2023-01-23T05:50:41.399Z,20.70
2023-01-23T05:53:08.008Z,22.02
2023-01-23T05:55:38.267Z,21.38
2023-01-23T05:58:05.517Z,22.90
2023-01-23T06:00:49.003Z,22.85
2023-01-23T06:03:35.645Z,19.63
2023-01-23T06:06:18.050Z,22.25
2023-01-23T06:08:44.710Z,20.67
2023-01-23T06:11:11.278Z,21.23
2023-01-23T06:13:37.830Z,19.92
2023-01-23T06:16:04.851Z,20.10
2023-01-23T06:18:31.512Z,19.27
2023-01-23T06:21:02.229Z,20.13
2023-01-23T06:23:29.475Z,18.75
2023-01-23T06:26:00.520Z,18.10
2023-01-23T06:28:28.867Z,17.98
2023-01-23T06:30:55.774Z,18.63
2023-01-23T06:33:33.109Z,19.83
2023-01-23T06:36:01.579Z,19.52
2023-01-23T06:38:28.572Z,19.55
2023-01-23T06:40:57.375Z,19.13
2023-01-23T06:43:30.595Z,20.27
2023-01-23T06:45:57.711Z,18.50
2023-01-23T06:48:24.882Z,19.85
2023-01-23T06:50:52.152Z,20.95
2023-01-23T06:53:19.090Z,20.35
2023-01-23T06:55:47.798Z,19.75
2023-01-23T06:58:16.389Z,18.13
2023-01-23T07:00:44.528Z,19.75
2023-01-23T07:03:20.969Z,18.48
2023-01-23T07:05:47.544Z,18.48
2023-01-23T07:08:14.118Z,19.85
2023-01-23T07:10:41.586Z,20.13
2023-01-23T07:13:10.035Z,20.83
2023-01-23T07:15:37.060Z,21.65
2023-01-23T07:18:04.576Z,21.13
2023-01-23T07:20:31.210Z,20.85
2023-01-23T07:22:59.680Z,21.23
2023-01-23T07:25:26.577Z,20.50
2023-01-23T07:27:53.173Z,20.73
2023-01-23T07:30:20.319Z,21.05
2023-01-23T07:32:47.129Z,20.42
2023-01-23T07:35:13.809Z,20.38
2023-01-23T07:37:40.367Z,19.38
2023-01-23T07:40:07.443Z,20.77
2023-01-23T07:42:34.048Z,20.13
2023-01-23T07:45:00.648Z,20.40
2023-01-23T07:47:27.340Z,19.73
2023-01-23T07:49:53.961Z,19.10
2023-01-23T07:52:20.560Z,20.33
2023-01-23T07:54:47.034Z,18.75
2023-01-23T07:57:13.640Z,20.65
2023-01-23T07:59:40.372Z,20.10
2023-01-23T08:02:09.951Z,20.20
2023-01-23T08:04:36.835Z,19.33
2023-01-23T08:07:04.608Z,18.23
2023-01-23T08:09:33.762Z,18.13
2023-01-23T08:12:00.319Z,17.55
2023-01-23T08:14:26.964Z,19.33
2023-01-23T08:16:54.195Z,18.33
2023-01-23T08:19:21.136Z,17.92
2023-01-23T08:21:47.756Z,19.05
2023-01-23T08:24:14.668Z,18.80
2023-01-23T08:26:42.139Z,16.92
2023-01-23T08:29:09.471Z,18.10
2023-01-23T08:31:36.149Z,19.20
2023-01-23T08:34:02.735Z,17.45
2023-01-23T08:36:29.433Z,18.85
2023-01-23T08:38:56.407Z,17.52
2023-01-23T08:41:23.523Z,17.52
2023-01-23T08:43:50.703Z,17.42
2023-01-23T08:46:17.321Z,17.00
2023-01-23T08:48:43.954Z,16.40
2023-01-23T08:51:12.964Z,17.05
2023-01-23T08:53:40.526Z,18.05
2023-01-23T08:56:16.335Z,19.10
2023-01-23T08:58:43.204Z,17.98
2023-01-23T09:01:14.490Z,16.27
2023-01-23T09:03:41.072Z,16.70
2023-01-23T09:06:07.904Z,17.70
2023-01-23T09:08:35.383Z,17.10
2023-01-23T09:11:07.251Z,17.23
2023-01-23T09:13:34.197Z,16.75
2023-01-23T09:16:01.289Z,17.08
2023-01-23T09:18:28.451Z,17.00
2023-01-23T09:20:55.823Z,17.45
2023-01-23T09:23:22.983Z,17.20
2023-01-23T09:25:50.115Z,17.13
2023-01-23T09:28:16.661Z,17.25
2023-01-23T09:30:43.319Z,17.10
2023-01-23T09:33:09.960Z,17.05
2023-01-23T09:35:36.447Z,16.65
2023-01-23T09:38:07.033Z,17.52
2023-01-23T09:41:00.516Z,16.27
2023-01-23T09:43:45.304Z,16.92
2023-01-23T09:46:28.073Z,15.57
2023-01-23T09:51:41.266Z,13.00
2023-01-23T09:54:21.093Z,16.17
2023-01-23T09:56:48.767Z,17.52
2023-01-23T09:59:31.525Z,16.83
2023-01-23T10:01:58.075Z,16.38
2023-01-23T10:04:24.735Z,15.95
2023-01-23T10:07:19.527Z,16.58
2023-01-23T10:10:00.344Z,16.63
2023-01-23T10:12:29.884Z,16.73
2023-01-23T10:15:11.716Z,15.88
2023-01-23T10:18:07.500Z,12.18
2023-01-23T10:20:49.894Z,16.65
2023-01-23T10:23:37.036Z,16.50
2023-01-23T10:26:04.514Z,16.48
2023-01-23T10:28:39.141Z,15.98
2023-01-23T10:31:12.685Z,16.90
2023-01-23T10:33:45.005Z,14.73
2023-01-23T10:36:41.745Z,14.95
2023-01-23T10:39:19.120Z,16.80
2023-01-23T10:41:51.189Z,15.20
2023-01-23T10:44:20.423Z,16.60
2023-01-23T10:46:54.182Z,15.88
2023-01-23T10:49:44.625Z,14.95
2023-01-23T10:52:34.166Z,16.13
2023-01-23T10:55:01.545Z,16.48
2023-01-23T10:57:30.939Z,15.65
2023-01-23T11:00:08.287Z,15.45
2023-01-23T11:02:38.004Z,16.65
2023-01-23T11:05:50.625Z,15.82
2023-01-23T11:08:38.885Z,15.98
2023-01-23T11:11:21.071Z,16.05
2023-01-23T11:13:50.702Z,15.60
2023-01-23T11:16:20.514Z,15.70
2023-01-23T11:19:04.748Z,16.42
2023-01-23T11:21:37.693Z,15.70
2023-01-23T11:24:39.154Z,16.05
2023-01-23T11:27:15.467Z,16.88
2023-01-23T11:29:55.880Z,16.25
2023-01-23T11:32:24.839Z,15.07
2023-01-23T11:35:03.480Z,16.38
2023-01-23T11:37:37.269Z,14.93
2023-01-23T11:40:15.071Z,15.40
2023-01-23T11:42:44.296Z,15.50
2023-01-23T11:45:37.626Z,15.27
2023-01-23T11:48:48.276Z,15.88
2023-01-23T11:51:52.375Z,15.45
2023-01-23T11:54:49.735Z,15.23
2023-01-23T11:57:34.227Z,16.85
2023-01-23T12:00:22.657Z,14.68
2023-01-23T12:03:24.334Z,16.48
2023-01-23T12:06:20.071Z,16.33
2023-01-23T12:09:18.340Z,15.32
2023-01-23T12:12:03.712Z,14.90
2023-01-23T12:15:12.024Z,15.32
2023-01-23T12:17:57.453Z,16.08
2023-01-23T12:20:49.297Z,15.65
2023-01-23T12:23:23.141Z,15.20
2023-01-23T12:26:22.493Z,14.85
2023-01-23T12:29:13.676Z,14.45
2023-01-23T12:32:02.730Z,14.18
2023-01-23T12:34:48.465Z,14.82
2023-01-23T12:37:37.646Z,14.75
2023-01-23T12:40:23.189Z,13.70
2023-01-23T12:43:01.888Z,14.38
2023-01-23T12:45:31.973Z,13.82
2023-01-23T12:48:15.036Z,14.07
2023-01-23T12:50:49.324Z,14.88
2023-01-23T12:53:18.908Z,15.15
2023-01-23T12:56:03.802Z,13.32
2023-01-23T12:58:35.187Z,14.30
2023-01-23T13:01:15.919Z,14.65
2023-01-23T13:04:14.291Z,15.15
2023-01-23T13:06:53.033Z,13.07
2023-01-23T13:09:36.990Z,14.35
2023-01-23T13:12:22.847Z,15.13
2023-01-23T13:15:10.581Z,14.45
2023-01-23T13:17:47.274Z,14.68
2023-01-23T13:20:43.184Z,13.98
2023-01-23T13:23:22.559Z,13.98
2023-01-23T13:25:51.085Z,13.52
2023-01-23T13:28:45.213Z,13.52
2023-01-23T13:31:27.677Z,13.93
2023-01-23T13:34:06.740Z,13.37
2023-01-23T13:36:37.910Z,13.80
2023-01-23T13:39:13.268Z,14.30
2023-01-23T13:41:39.783Z,14.55
2023-01-23T13:44:41.546Z,13.18
2023-01-23T14:28:05.967Z,12.18
2023-01-23T14:30:32.613Z,12.90
2023-01-23T14:32:59.387Z,13.15
2023-01-23T14:35:27.701Z,12.65
2023-01-23T14:37:57.734Z,12.25
2023-01-23T14:40:28.167Z,12.57
2023-01-23T14:43:02.452Z,12.15
2023-01-23T14:45:33.112Z,11.93
2023-01-23T14:48:06.027Z,12.35
2023-01-23T14:50:33.964Z,11.70
2023-01-23T14:53:05.693Z,12.30
2023-01-23T14:55:37.771Z,13.80
2023-01-23T14:58:04.953Z,11.82
2023-01-23T15:00:32.399Z,13.32
2023-01-23T15:02:59.043Z,13.68
2023-01-23T15:05:30.276Z,14.45
2023-01-23T15:07:57.912Z,14.05
2023-01-23T15:10:27.499Z,14.18
2023-01-23T15:13:05.033Z,12.77
2023-01-23T15:15:34.670Z,13.55
2023-01-23T15:18:03.507Z,13.32
2023-01-23T15:20:38.518Z,13.15
2023-01-23T15:23:31.152Z,11.65
2023-01-23T15:26:16.444Z,10.50
2023-01-23T15:29:03.673Z,10.77
2023-01-23T15:31:34.414Z,10.32
2023-01-23T15:34:16.624Z,11.20
2023-01-23T15:37:02.133Z,11.25
2023-01-23T15:39:49.005Z,10.82
2023-01-23T15:42:15.462Z,11.23
2023-01-23T15:44:42.847Z,10.55
2023-01-23T15:47:10.379Z,9.63
2023-01-23T15:49:39.147Z,10.15
2023-01-23T15:52:21.665Z,10.45
2023-01-23T15:55:09.772Z,10.60
2023-01-23T15:57:36.278Z,10.88
2023-01-23T16:00:13.390Z,11.05
2023-01-23T16:02:54.768Z,12.90
2023-01-23T16:05:25.737Z,10.38
2023-01-23T16:07:53.525Z,11.02
2023-01-23T16:10:25.969Z,10.45
2023-01-23T16:12:54.511Z,10.95
2023-01-23T16:15:22.916Z,11.88
2023-01-23T16:17:50.395Z,10.98
2023-01-23T16:20:32.471Z,11.32
2023-01-23T16:23:14.243Z,12.77
2023-01-23T16:25:45.022Z,12.90
2023-01-23T16:28:17.502Z,14.63
2023-01-23T16:30:44.777Z,13.13
2023-01-23T16:33:11.816Z,14.30
2023-01-23T16:35:38.651Z,12.43
2023-01-23T16:38:05.794Z,12.23
2023-01-23T16:40:33.635Z,13.10
2023-01-23T16:43:02.578Z,12.00
2023-01-23T16:45:31.395Z,12.68
2023-01-23T16:47:58.395Z,12.27
2023-01-23T16:50:39.751Z,15.77
2023-01-23T16:53:14.822Z,12.48
2023-01-23T16:55:42.237Z,12.00
2023-01-23T16:58:16.248Z,11.45
2023-01-23T17:00:43.720Z,12.00
2023-01-23T17:03:17.200Z,11.32
2023-01-23T17:05:44.343Z,11.88
2023-01-23T17:08:23.230Z,12.82
2023-01-23T17:10:52.912Z,12.30
2023-01-23T17:13:21.182Z,12.48
2023-01-23T17:15:50.951Z,10.93
2023-01-23T17:18:27.048Z,10.88
2023-01-23T17:20:56.964Z,10.60
2023-01-23T17:23:25.383Z,12.00
2023-01-23T17:26:00.428Z,10.90
2023-01-23T17:28:27.704Z,10.20
2023-01-23T17:30:55.245Z,10.10
2023-01-23T17:33:27.647Z,13.55
2023-01-23T17:35:54.373Z,11.18
2023-01-23T17:38:23.948Z,11.10
2023-01-23T17:40:50.739Z,10.13
2023-01-23T17:43:21.205Z,10.23
2023-01-23T17:45:51.354Z,10.27
2023-01-23T17:48:26.234Z,10.23
2023-01-23T17:50:52.788Z,10.82
2023-01-23T17:53:19.461Z,9.82
2023-01-23T17:55:50.215Z,10.30
2023-01-23T17:58:17.566Z,10.77
2023-01-23T18:00:45.955Z,11.35
2023-01-23T18:03:15.200Z,10.13
2023-01-23T18:05:42.771Z,10.70
2023-01-23T18:08:14.241Z,10.05
2023-01-23T18:10:43.734Z,10.60
2023-01-23T18:13:28.167Z,11.27
2023-01-23T18:16:09.926Z,10.32
2023-01-23T18:18:39.033Z,11.68
2023-01-23T18:21:12.184Z,9.65
2023-01-23T18:23:39.180Z,10.63
2023-01-23T18:26:14.472Z,14.20
2023-01-23T18:29:18.710Z,11.77
2023-01-23T18:32:00.563Z,11.95
2023-01-23T18:34:39.500Z,11.73
2023-01-23T18:37:05.956Z,11.40
2023-01-23T18:39:47.609Z,12.23
2023-01-23T18:42:23.994Z,11.80
2023-01-23T18:45:01.494Z,11.70
2023-01-23T18:47:28.251Z,12.32
2023-01-23T18:49:55.004Z,11.35
2023-01-23T18:52:35.357Z,11.15
2023-01-23T18:55:05.057Z,10.98
2023-01-23T18:57:55.868Z,11.70
2023-01-23T19:00:40.173Z,11.45
2023-01-23T19:03:15.837Z,12.95
2023-01-23T19:05:43.355Z,13.10
2023-01-23T19:08:27.963Z,12.60
2023-01-23T19:11:00.308Z,11.95
2023-01-23T19:13:52.635Z,12.77
2023-01-23T19:16:31.832Z,10.40
2023-01-23T19:19:17.312Z,11.88
2023-01-23T19:21:47.034Z,11.50
2023-01-23T19:24:17.927Z,12.32
2023-01-23T19:26:44.728Z,11.32
2023-01-23T19:29:21.496Z,12.10
2023-01-23T19:32:03.549Z,11.82
2023-01-23T19:34:30.521Z,13.55
2023-01-23T19:36:57.103Z,11.80
2023-01-23T19:39:23.604Z,12.48
2023-01-23T19:41:50.512Z,13.13
2023-01-23T19:44:19.223Z,11.20
2023-01-23T19:46:46.145Z,11.77
2023-01-23T19:49:13.856Z,13.27
2023-01-23T19:51:41.059Z,13.50
2023-01-23T19:54:12.330Z,12.38
2023-01-23T19:56:39.383Z,12.63
2023-01-23T19:59:07.054Z,13.05
2023-01-23T20:01:45.533Z,13.10
2023-01-23T20:04:21.386Z,12.88
2023-01-23T20:06:50.415Z,13.70
2023-01-23T20:09:17.610Z,14.05
2023-01-23T20:11:45.349Z,14.02
2023-01-23T20:14:12.525Z,15.07
2023-01-23T20:16:42.580Z,15.18
2023-01-23T20:19:13.402Z,14.15
2023-01-23T20:21:39.960Z,14.45
2023-01-23T20:24:08.194Z,16.50
2023-01-23T20:26:35.347Z,17.73
2023-01-23T20:29:03.843Z,15.68
2023-01-23T20:31:31.150Z,21.70
2023-01-23T20:33:57.843Z,15.65
2023-01-23T20:36:24.493Z,15.10
2023-01-23T20:38:51.031Z,13.68
2023-01-23T20:41:19.591Z,16.48
2023-01-23T20:43:47.199Z,16.33
2023-01-23T20:46:15.332Z,14.60
2023-01-23T20:48:44.207Z,14.82
2023-01-23T20:51:11.866Z,15.10
2023-01-23T20:53:39.972Z,14.95
2023-01-23T20:56:07.927Z,15.60
2023-01-23T20:58:55.073Z,16.60
2023-01-23T21:01:23.636Z,13.40
2023-01-23T21:03:50.831Z,15.23
2023-01-23T21:06:18.141Z,15.18
2023-01-23T21:08:45.848Z,16.95
2023-01-23T21:11:20.508Z,16.35
2023-01-23T21:13:54.457Z,18.33
2023-01-23T21:16:21.102Z,14.70
2023-01-23T21:18:47.753Z,14.18
2023-01-23T21:21:19.925Z,13.57
2023-01-23T21:23:49.023Z,15.05
2023-01-23T21:26:24.420Z,13.27
2023-01-23T21:28:53.310Z,13.57
2023-01-23T21:31:22.910Z,13.02
2023-01-23T21:33:50.067Z,14.77
2023-01-23T21:36:20.267Z,13.38
2023-01-23T21:38:47.248Z,15.77
2023-01-23T21:41:14.394Z,16.33
2023-01-23T21:43:41.057Z,14.25
2023-01-23T21:46:07.685Z,13.88
2023-01-23T21:48:35.108Z,14.15
2023-01-23T21:51:12.372Z,14.57
2023-01-23T21:53:41.046Z,13.90
2023-01-23T21:56:09.611Z,14.38
2023-01-23T21:58:36.240Z,14.00
2023-01-23T22:01:29.860Z,14.95
2023-01-23T22:03:56.538Z,13.85
2023-01-23T22:06:23.093Z,14.18
2023-01-23T22:08:49.881Z,14.38
2023-01-23T22:11:16.486Z,14.13
2023-01-23T22:13:42.969Z,12.60
2023-01-23T22:16:09.655Z,13.50
2023-01-23T22:18:36.300Z,13.40
2023-01-23T22:21:05.401Z,13.73
2023-01-23T22:23:32.238Z,12.93
2023-01-23T22:26:01.413Z,11.60
2023-01-23T22:28:28.467Z,12.65
2023-01-23T22:30:55.710Z,11.82
2023-01-23T22:33:24.070Z,12.25
2023-01-23T22:35:52.225Z,11.48
2023-01-23T22:38:18.852Z,11.98
2023-01-23T22:40:45.458Z,12.68
2023-01-23T22:43:12.091Z,11.60
2023-01-23T22:45:38.688Z,11.98
2023-01-23T22:48:05.541Z,12.48
2023-01-23T22:50:32.022Z,12.45
2023-01-23T22:52:58.558Z,11.88
2023-01-23T22:55:25.107Z,12.00
2023-01-23T22:57:53.170Z,11.02
2023-01-23T23:00:20.225Z,11.60
2023-01-23T23:02:47.264Z,12.15
2023-01-23T23:05:14.022Z,12.15
2023-01-23T23:07:40.687Z,12.15
2023-01-23T23:10:11.348Z,12.60
2023-01-23T23:12:38.243Z,13.02
2023-01-23T23:15:05.306Z,12.85
2023-01-23T23:17:32.006Z,13.25
2023-01-23T23:19:58.551Z,12.63
2023-01-23T23:22:25.114Z,13.63
2023-01-23T23:24:51.752Z,12.77
2023-01-23T23:27:18.250Z,13.52
2023-01-23T23:29:44.768Z,12.10
2023-01-23T23:32:11.351Z,13.30
2023-01-23T23:34:37.931Z,13.15
2023-01-23T23:37:04.487Z,13.43
2023-01-23T23:39:31.077Z,13.57
2023-01-23T23:41:58.477Z,13.45
2023-01-23T23:44:25.095Z,14.25
2023-01-23T23:46:51.688Z,13.38
2023-01-23T23:49:18.249Z,13.52
2023-01-23T23:51:44.727Z,14.35
2023-01-23T23:54:11.285Z,13.38
2023-01-23T23:56:37.868Z,12.10
2023-01-23T23:59:04.497Z,12.70
